SAS16A EKCH-ESSA
Flight info
| Callsign | SAS16A |
|---|---|
| Flight time | 0h 54m |
| Altitude | 33000 |
| Route | KEMAX N851 ROXEN DCT MIKNA N851 PELUP Z226 NILUG |
| Aircraft | A21N/M-SDE2E3FGHIRWXY/LB1 |
Departure
| Time | 2026-04-26 16:53 |
|---|---|
| Airport | Copenhagen Kastrup Airport (EKCH) |
Arrival
| Time | 2026-04-26 17:47 |
|---|---|
| Airport | Stockholm-Arlanda Airport (ESSA) |
| Time | Latitude | Longitude | Altitude | Speed | Heading |
|---|---|---|---|---|---|
| 2026-04-26 16:26 | 55.62606 | 12.64887 | 19 ft | 0 kts | 91° |
| 2026-04-26 16:42 | 55.62606 | 12.64867 | 18 ft | 3 kts | 91° |
| 2026-04-26 16:42 | 55.62607 | 12.64820 | 18 ft | 3 kts | 91° |
| 2026-04-26 16:43 | 55.62608 | 12.64774 | 18 ft | 3 kts | 90° |
| 2026-04-26 16:43 | 55.62608 | 12.64731 | 19 ft | 1 kts | 92° |
| 2026-04-26 16:46 | 55.62607 | 12.64739 | 18 ft | 1 kts | 106° |
| 2026-04-26 16:47 | 55.62595 | 12.64758 | 18 ft | 4 kts | 154° |
| 2026-04-26 16:47 | 55.62549 | 12.64770 | 18 ft | 8 kts | 177° |
| 2026-04-26 16:47 | 55.62472 | 12.64774 | 18 ft | 14 kts | 179° |
| 2026-04-26 16:47 | 55.62352 | 12.64783 | 15 ft | 19 kts | 179° |
| 2026-04-26 16:48 | 55.62213 | 12.64771 | 15 ft | 20 kts | 197° |
| 2026-04-26 16:48 | 55.62096 | 12.64639 | 15 ft | 19 kts | 213° |
| 2026-04-26 16:48 | 55.61984 | 12.64521 | 15 ft | 15 kts | 199° |
| 2026-04-26 16:48 | 55.61881 | 12.64514 | 15 ft | 15 kts | 169° |
| 2026-04-26 16:49 | 55.61733 | 12.64563 | 15 ft | 20 kts | 171° |
| 2026-04-26 16:49 | 55.61605 | 12.64486 | 15 ft | 19 kts | 214° |
| 2026-04-26 16:49 | 55.61489 | 12.64353 | 15 ft | 20 kts | 214° |
| 2026-04-26 16:49 | 55.61368 | 12.64213 | 16 ft | 21 kts | 214° |
| 2026-04-26 16:50 | 55.61242 | 12.64067 | 17 ft | 22 kts | 213° |
| 2026-04-26 16:50 | 55.61099 | 12.63904 | 17 ft | 26 kts | 214° |
| 2026-04-26 16:50 | 55.60936 | 12.63716 | 17 ft | 27 kts | 212° |
| 2026-04-26 16:50 | 55.60775 | 12.63533 | 15 ft | 27 kts | 212° |
| 2026-04-26 16:51 | 55.60625 | 12.63347 | 14 ft | 26 kts | 219° |
| 2026-04-26 16:51 | 55.60519 | 12.63217 | 14 ft | 12 kts | 187° |
| 2026-04-26 16:51 | 55.60469 | 12.63253 | 13 ft | 0 kts | 133° |
| 2026-04-26 16:51 | 55.60469 | 12.63254 | 13 ft | 0 kts | 133° |
| 2026-04-26 16:52 | 55.60466 | 12.63260 | 13 ft | 3 kts | 133° |
| 2026-04-26 16:52 | 55.60406 | 12.63388 | 12 ft | 11 kts | 111° |
| 2026-04-26 16:52 | 55.60416 | 12.63471 | 12 ft | 7 kts | 47° |
| 2026-04-26 16:53 | 55.60510 | 12.63611 | 14 ft | 46 kts | 39° |
| 2026-04-26 16:53 | 55.60961 | 12.64317 | 15 ft | 123 kts | 42° |
| 2026-04-26 16:53 | 55.61758 | 12.65559 | 68 ft | 178 kts | 38° |
| 2026-04-26 16:53 | 55.62679 | 12.67036 | 753 ft | 183 kts | 39° |
| 2026-04-26 16:54 | 55.63610 | 12.68532 | 1649 ft | 182 kts | 38° |
| 2026-04-26 16:54 | 55.64556 | 12.69991 | 2437 ft | 188 kts | 37° |
| 2026-04-26 16:54 | 55.65595 | 12.71546 | 3036 ft | 206 kts | 36° |
| 2026-04-26 16:54 | 55.66749 | 12.73247 | 3549 ft | 226 kts | 36° |
| 2026-04-26 16:55 | 55.67984 | 12.75069 | 4112 ft | 243 kts | 36° |
| 2026-04-26 16:55 | 55.69333 | 12.77069 | 4722 ft | 259 kts | 36° |
| 2026-04-26 16:55 | 55.70699 | 12.79111 | 5586 ft | 264 kts | 36° |
| 2026-04-26 16:55 | 55.72107 | 12.81222 | 6516 ft | 266 kts | 36° |
| 2026-04-26 16:56 | 55.74926 | 12.85476 | 8226 ft | 272 kts | 36° |
| 2026-04-26 16:56 | 55.76335 | 12.87683 | 9065 ft | 274 kts | 36° |
| 2026-04-26 16:56 | 55.77747 | 12.89911 | 9845 ft | 275 kts | 36° |
| 2026-04-26 16:57 | 55.79169 | 12.92152 | 10620 ft | 278 kts | 35° |
| 2026-04-26 16:57 | 55.80634 | 12.94452 | 11089 ft | 291 kts | 35° |
| 2026-04-26 16:57 | 55.83841 | 12.99481 | 11733 ft | 326 kts | 36° |
| 2026-04-26 16:58 | 55.85573 | 13.02211 | 12172 ft | 338 kts | 36° |
| 2026-04-26 16:58 | 55.86740 | 13.04061 | 12609 ft | 341 kts | 36° |
| 2026-04-26 16:58 | 55.90895 | 13.10661 | 14181 ft | 348 kts | 35° |
| 2026-04-26 16:59 | 55.92697 | 13.13523 | 14828 ft | 352 kts | 35° |
| 2026-04-26 16:59 | 55.96371 | 13.19365 | 16039 ft | 358 kts | 35° |
| 2026-04-26 17:00 | 56.00081 | 13.25279 | 17230 ft | 365 kts | 35° |
| 2026-04-26 17:00 | 56.03896 | 13.31379 | 18386 ft | 370 kts | 35° |
| 2026-04-26 17:00 | 56.05786 | 13.34406 | 18908 ft | 374 kts | 34° |
| 2026-04-26 17:01 | 56.07746 | 13.37549 | 19435 ft | 378 kts | 34° |
| 2026-04-26 17:01 | 56.09694 | 13.40678 | 19958 ft | 381 kts | 34° |
| 2026-04-26 17:01 | 56.11666 | 13.43823 | 20508 ft | 384 kts | 33° |
| 2026-04-26 17:01 | 56.13725 | 13.46811 | 21002 ft | 385 kts | 30° |
| 2026-04-26 17:02 | 56.15885 | 13.49679 | 21504 ft | 388 kts | 29° |
| 2026-04-26 17:02 | 56.18057 | 13.52514 | 21991 ft | 391 kts | 28° |
| 2026-04-26 17:02 | 56.20266 | 13.55391 | 22457 ft | 394 kts | 28° |
| 2026-04-26 17:02 | 56.22474 | 13.58278 | 22931 ft | 397 kts | 28° |
| 2026-04-26 17:03 | 56.24706 | 13.61201 | 23390 ft | 400 kts | 28° |
| 2026-04-26 17:03 | 56.26949 | 13.64147 | 23833 ft | 403 kts | 28° |
| 2026-04-26 17:03 | 56.29212 | 13.67128 | 24249 ft | 406 kts | 29° |
| 2026-04-26 17:03 | 56.31514 | 13.70162 | 24670 ft | 409 kts | 30° |
| 2026-04-26 17:04 | 56.33792 | 13.73169 | 25087 ft | 411 kts | 30° |
| 2026-04-26 17:04 | 56.36095 | 13.76214 | 25480 ft | 414 kts | 29° |
| 2026-04-26 17:04 | 56.38412 | 13.79284 | 25872 ft | 416 kts | 30° |
| 2026-04-26 17:04 | 56.40738 | 13.82418 | 26270 ft | 420 kts | 31° |
| 2026-04-26 17:05 | 56.42986 | 13.85801 | 26630 ft | 424 kts | 34° |
| 2026-04-26 17:05 | 56.45188 | 13.89249 | 26980 ft | 426 kts | 34° |
| 2026-04-26 17:05 | 56.47429 | 13.92774 | 27328 ft | 428 kts | 34° |
| 2026-04-26 17:05 | 56.49671 | 13.96290 | 27667 ft | 430 kts | 34° |
| 2026-04-26 17:06 | 56.51940 | 13.99832 | 27977 ft | 432 kts | 34° |
| 2026-04-26 17:06 | 56.54221 | 14.03386 | 28298 ft | 434 kts | 33° |
| 2026-04-26 17:06 | 56.56508 | 14.06950 | 28612 ft | 436 kts | 33° |
| 2026-04-26 17:06 | 56.58804 | 14.10528 | 28904 ft | 437 kts | 33° |
| 2026-04-26 17:07 | 56.61097 | 14.14104 | 29222 ft | 438 kts | 33° |
| 2026-04-26 17:07 | 56.63383 | 14.17679 | 29617 ft | 437 kts | 33° |
| 2026-04-26 17:07 | 56.65693 | 14.21295 | 30025 ft | 436 kts | 33° |
| 2026-04-26 17:07 | 56.67979 | 14.24881 | 30428 ft | 434 kts | 33° |
| 2026-04-26 17:08 | 56.70247 | 14.28440 | 30805 ft | 433 kts | 33° |
| 2026-04-26 17:08 | 56.72518 | 14.32006 | 31136 ft | 432 kts | 33° |
| 2026-04-26 17:08 | 56.74772 | 14.35556 | 31465 ft | 431 kts | 33° |
| 2026-04-26 17:08 | 56.77009 | 14.39083 | 31746 ft | 431 kts | 33° |
| 2026-04-26 17:09 | 56.79269 | 14.42649 | 31980 ft | 433 kts | 33° |
| 2026-04-26 17:09 | 56.80779 | 14.45035 | 32126 ft | 433 kts | 33° |
| 2026-04-26 17:09 | 56.83826 | 14.49859 | 32457 ft | 434 kts | 33° |
| 2026-04-26 17:09 | 56.86069 | 14.53419 | 32678 ft | 435 kts | 33° |
| 2026-04-26 17:10 | 56.88342 | 14.57030 | 32905 ft | 435 kts | 33° |
| 2026-04-26 17:10 | 56.90640 | 14.60687 | 33125 ft | 435 kts | 33° |
| 2026-04-26 17:10 | 56.95200 | 14.67967 | 33176 ft | 437 kts | 34° |
| 2026-04-26 17:11 | 56.99748 | 14.75254 | 33177 ft | 437 kts | 33° |
| 2026-04-26 17:11 | 57.04287 | 14.82550 | 33177 ft | 436 kts | 33° |
| 2026-04-26 17:12 | 57.11081 | 14.93514 | 33173 ft | 436 kts | 33° |
| 2026-04-26 17:13 | 57.17883 | 15.04547 | 33166 ft | 435 kts | 33° |
| 2026-04-26 17:14 | 57.24639 | 15.15562 | 33159 ft | 434 kts | 33° |
| 2026-04-26 17:14 | 57.31359 | 15.26574 | 33154 ft | 433 kts | 33° |
| 2026-04-26 17:15 | 57.38078 | 15.37641 | 33152 ft | 433 kts | 33° |
| 2026-04-26 17:16 | 57.42551 | 15.45041 | 33150 ft | 432 kts | 33° |
| 2026-04-26 17:16 | 57.47007 | 15.52436 | 33148 ft | 431 kts | 33° |
| 2026-04-26 17:17 | 57.51469 | 15.59864 | 33148 ft | 431 kts | 33° |
| 2026-04-26 17:17 | 57.55919 | 15.67303 | 33142 ft | 431 kts | 33° |
| 2026-04-26 17:18 | 57.60357 | 15.74742 | 33141 ft | 431 kts | 33° |
| 2026-04-26 17:18 | 57.64788 | 15.82200 | 33138 ft | 430 kts | 33° |
| 2026-04-26 17:19 | 57.71397 | 15.93368 | 33137 ft | 430 kts | 33° |
| 2026-04-26 17:19 | 57.75791 | 16.00826 | 33131 ft | 429 kts | 33° |
| 2026-04-26 17:20 | 57.79478 | 16.07102 | 33132 ft | 428 kts | 33° |
| 2026-04-26 17:20 | 57.84577 | 16.15811 | 33127 ft | 428 kts | 33° |
| 2026-04-26 17:21 | 57.88944 | 16.23301 | 33121 ft | 427 kts | 33° |
| 2026-04-26 17:21 | 57.93328 | 16.30841 | 33121 ft | 427 kts | 33° |
| 2026-04-26 17:22 | 57.97670 | 16.38340 | 33117 ft | 426 kts | 33° |
| 2026-04-26 17:22 | 58.02011 | 16.45862 | 33117 ft | 424 kts | 32° |
| 2026-04-26 17:23 | 58.06335 | 16.53377 | 33083 ft | 424 kts | 33° |
| 2026-04-26 17:23 | 58.08504 | 16.57155 | 32830 ft | 425 kts | 32° |
| 2026-04-26 17:23 | 58.10674 | 16.60942 | 32585 ft | 426 kts | 32° |
| 2026-04-26 17:24 | 58.12837 | 16.64723 | 32341 ft | 426 kts | 32° |
| 2026-04-26 17:24 | 58.15015 | 16.68540 | 32053 ft | 427 kts | 33° |
| 2026-04-26 17:24 | 58.17183 | 16.72343 | 31620 ft | 428 kts | 33° |
| 2026-04-26 17:24 | 58.19329 | 16.76116 | 31052 ft | 429 kts | 33° |
| 2026-04-26 17:25 | 58.21511 | 16.79958 | 30407 ft | 429 kts | 33° |
| 2026-04-26 17:25 | 58.23681 | 16.83785 | 29688 ft | 429 kts | 34° |
| 2026-04-26 17:25 | 58.25849 | 16.87617 | 28957 ft | 429 kts | 34° |
| 2026-04-26 17:25 | 58.28040 | 16.91495 | 28296 ft | 427 kts | 34° |
| 2026-04-26 17:26 | 58.30175 | 16.95291 | 27836 ft | 421 kts | 34° |
| 2026-04-26 17:26 | 58.32284 | 16.99049 | 27387 ft | 414 kts | 34° |
| 2026-04-26 17:26 | 58.34359 | 17.02749 | 26924 ft | 409 kts | 34° |
| 2026-04-26 17:26 | 58.36413 | 17.06416 | 26446 ft | 404 kts | 34° |
| 2026-04-26 17:27 | 58.38427 | 17.10012 | 25977 ft | 400 kts | 33° |
| 2026-04-26 17:27 | 58.40448 | 17.13627 | 25494 ft | 396 kts | 34° |
| 2026-04-26 17:27 | 58.42430 | 17.17175 | 25016 ft | 393 kts | 33° |
| 2026-04-26 17:27 | 58.44397 | 17.20703 | 24559 ft | 389 kts | 34° |
| 2026-04-26 17:28 | 58.46353 | 17.24217 | 24104 ft | 385 kts | 33° |
| 2026-04-26 17:28 | 58.48281 | 17.27691 | 23652 ft | 382 kts | 33° |
| 2026-04-26 17:28 | 58.50206 | 17.31159 | 23173 ft | 380 kts | 34° |
| 2026-04-26 17:28 | 58.52112 | 17.34597 | 22712 ft | 377 kts | 34° |
| 2026-04-26 17:29 | 58.54003 | 17.38014 | 22254 ft | 374 kts | 34° |
| 2026-04-26 17:29 | 58.55259 | 17.40287 | 21944 ft | 372 kts | 34° |
| 2026-04-26 17:29 | 58.57738 | 17.44785 | 21325 ft | 369 kts | 34° |
| 2026-04-26 17:29 | 58.59578 | 17.48127 | 20864 ft | 366 kts | 34° |
| 2026-04-26 17:30 | 58.61423 | 17.51487 | 20385 ft | 364 kts | 34° |
| 2026-04-26 17:30 | 58.63222 | 17.54765 | 19919 ft | 361 kts | 34° |
| 2026-04-26 17:30 | 58.65036 | 17.58075 | 19461 ft | 358 kts | 34° |
| 2026-04-26 17:30 | 58.66819 | 17.61338 | 18996 ft | 356 kts | 34° |
| 2026-04-26 17:31 | 58.68604 | 17.64606 | 18537 ft | 353 kts | 34° |
| 2026-04-26 17:31 | 58.70356 | 17.67820 | 18071 ft | 350 kts | 35° |
| 2026-04-26 17:31 | 58.72120 | 17.71054 | 17605 ft | 348 kts | 35° |
| 2026-04-26 17:31 | 58.73846 | 17.74230 | 17143 ft | 346 kts | 35° |
| 2026-04-26 17:32 | 58.75561 | 17.77387 | 16680 ft | 343 kts | 35° |
| 2026-04-26 17:32 | 58.77288 | 17.80573 | 16204 ft | 341 kts | 35° |
| 2026-04-26 17:32 | 58.78985 | 17.83708 | 15735 ft | 339 kts | 36° |
| 2026-04-26 17:32 | 58.80697 | 17.86647 | 15288 ft | 332 kts | 30° |
| 2026-04-26 17:33 | 58.82561 | 17.89176 | 14898 ft | 321 kts | 24° |
| 2026-04-26 17:33 | 58.84476 | 17.91214 | 14919 ft | 315 kts | 20° |
| 2026-04-26 17:33 | 58.86444 | 17.93105 | 14606 ft | 312 kts | 19° |
| 2026-04-26 17:34 | 58.90316 | 17.96748 | 13506 ft | 312 kts | 20° |
| 2026-04-26 17:34 | 58.92252 | 17.98575 | 12979 ft | 312 kts | 20° |
| 2026-04-26 17:34 | 58.94199 | 18.00416 | 12428 ft | 312 kts | 20° |
| 2026-04-26 17:34 | 58.96141 | 18.02256 | 11884 ft | 312 kts | 20° |
| 2026-04-26 17:35 | 58.98087 | 18.04099 | 11346 ft | 311 kts | 21° |
| 2026-04-26 17:35 | 59.00003 | 18.05924 | 11067 ft | 304 kts | 21° |
| 2026-04-26 17:35 | 59.01856 | 18.07696 | 10797 ft | 296 kts | 21° |
| 2026-04-26 17:35 | 59.03686 | 18.09442 | 10357 ft | 295 kts | 21° |
| 2026-04-26 17:36 | 59.05526 | 18.11194 | 9843 ft | 295 kts | 21° |
| 2026-04-26 17:36 | 59.07348 | 18.12928 | 9394 ft | 292 kts | 20° |
| 2026-04-26 17:36 | 59.09221 | 18.14347 | 8955 ft | 287 kts | 13° |
| 2026-04-26 17:36 | 59.11109 | 18.15235 | 8411 ft | 280 kts | 6° |
| 2026-04-26 17:37 | 59.13032 | 18.15494 | 7643 ft | 275 kts | 349° |
| 2026-04-26 17:37 | 59.14780 | 18.14264 | 7189 ft | 269 kts | 331° |
| 2026-04-26 17:37 | 59.16364 | 18.12434 | 7052 ft | 256 kts | 328° |
| 2026-04-26 17:38 | 59.19161 | 18.08942 | 7051 ft | 223 kts | 327° |
| 2026-04-26 17:38 | 59.20435 | 18.07343 | 7050 ft | 218 kts | 327° |
| 2026-04-26 17:38 | 59.21711 | 18.05745 | 7054 ft | 219 kts | 328° |
| 2026-04-26 17:38 | 59.23003 | 18.04167 | 7042 ft | 219 kts | 330° |
| 2026-04-26 17:39 | 59.24345 | 18.02591 | 7054 ft | 219 kts | 328° |
| 2026-04-26 17:39 | 59.25582 | 18.01056 | 7060 ft | 219 kts | 328° |
| 2026-04-26 17:39 | 59.26862 | 17.99447 | 7063 ft | 220 kts | 328° |
| 2026-04-26 17:39 | 59.28142 | 17.97830 | 7061 ft | 219 kts | 327° |
| 2026-04-26 17:40 | 59.29423 | 17.96211 | 7055 ft | 219 kts | 328° |
| 2026-04-26 17:40 | 59.30299 | 17.95234 | 6936 ft | 216 kts | 334° |
| 2026-04-26 17:40 | 59.32144 | 17.93667 | 6392 ft | 218 kts | 337° |
| 2026-04-26 17:40 | 59.33528 | 17.92574 | 6021 ft | 219 kts | 338° |
| 2026-04-26 17:41 | 59.34947 | 17.91456 | 5688 ft | 217 kts | 338° |
| 2026-04-26 17:41 | 59.36331 | 17.90365 | 5355 ft | 216 kts | 338° |
| 2026-04-26 17:41 | 59.37715 | 17.89276 | 5104 ft | 211 kts | 338° |
| 2026-04-26 17:41 | 59.39043 | 17.88234 | 4936 ft | 203 kts | 340° |
| 2026-04-26 17:42 | 59.40420 | 17.87667 | 4702 ft | 200 kts | 354° |
| 2026-04-26 17:42 | 59.41792 | 17.87719 | 4339 ft | 203 kts | 2° |
| 2026-04-26 17:42 | 59.43192 | 17.88074 | 4041 ft | 202 kts | 5° |
| 2026-04-26 17:42 | 59.44581 | 17.88527 | 3764 ft | 200 kts | 6° |
| 2026-04-26 17:43 | 59.45936 | 17.89007 | 3508 ft | 196 kts | 6° |
| 2026-04-26 17:43 | 59.47224 | 17.89477 | 3342 ft | 187 kts | 6° |
| 2026-04-26 17:43 | 59.48497 | 17.89943 | 3052 ft | 182 kts | 7° |
| 2026-04-26 17:43 | 59.49706 | 17.90385 | 2779 ft | 176 kts | 6° |
| 2026-04-26 17:44 | 59.50886 | 17.90815 | 2522 ft | 170 kts | 6° |
| 2026-04-26 17:44 | 59.52017 | 17.91226 | 2280 ft | 163 kts | 6° |
| 2026-04-26 17:44 | 59.53112 | 17.91625 | 2055 ft | 158 kts | 6° |
| 2026-04-26 17:44 | 59.54186 | 17.92014 | 1861 ft | 158 kts | 6° |
| 2026-04-26 17:45 | 59.55271 | 17.92406 | 1656 ft | 156 kts | 7° |
| 2026-04-26 17:45 | 59.56288 | 17.92779 | 1470 ft | 141 kts | 6° |
| 2026-04-26 17:45 | 59.57207 | 17.93115 | 1265 ft | 134 kts | 6° |
| 2026-04-26 17:45 | 59.58121 | 17.93439 | 1090 ft | 133 kts | 5° |
| 2026-04-26 17:46 | 59.59025 | 17.93763 | 910 ft | 132 kts | 6° |
| 2026-04-26 17:46 | 59.59924 | 17.94071 | 737 ft | 132 kts | 6° |
| 2026-04-26 17:46 | 59.60823 | 17.94422 | 547 ft | 131 kts | 7° |
| 2026-04-26 17:46 | 59.61707 | 17.94747 | 374 ft | 130 kts | 6° |
| 2026-04-26 17:47 | 59.62602 | 17.95063 | 197 ft | 130 kts | 6° |
| 2026-04-26 17:47 | 59.63178 | 17.95258 | 140 ft | 118 kts | 13° |
| 2026-04-26 17:47 | 59.63919 | 17.95541 | 123 ft | 55 kts | 6° |
| 2026-04-26 17:47 | 59.64245 | 17.95451 | 117 ft | 33 kts | 340° |
| 2026-04-26 17:48 | 59.64346 | 17.95379 | 116 ft | 0 kts | 340° |
| 2026-04-26 17:48 | 59.64346 | 17.95378 | 116 ft | 0 kts | 340° |
| 2026-04-26 17:48 | 59.64347 | 17.95378 | 116 ft | 0 kts | 340° |
| 2026-04-26 17:49 | 59.64352 | 17.95374 | 116 ft | 2 kts | 340° |
| 2026-04-26 17:49 | 59.64381 | 17.95354 | 115 ft | 5 kts | 343° |
| 2026-04-26 17:49 | 59.64442 | 17.95334 | 115 ft | 11 kts | 356° |
| 2026-04-26 17:50 | 59.64540 | 17.95356 | 115 ft | 16 kts | 12° |
| 2026-04-26 17:50 | 59.64667 | 17.95401 | 115 ft | 20 kts | 10° |
| 2026-04-26 17:50 | 59.64817 | 17.95455 | 115 ft | 23 kts | 9° |
| 2026-04-26 17:50 | 59.64973 | 17.95511 | 121 ft | 22 kts | 4° |
| 2026-04-26 17:51 | 59.65127 | 17.95469 | 127 ft | 22 kts | 344° |
| 2026-04-26 17:51 | 59.65286 | 17.95381 | 138 ft | 24 kts | 344° |
| 2026-04-26 17:51 | 59.65459 | 17.95289 | 144 ft | 27 kts | 345° |
| 2026-04-26 17:51 | 59.65650 | 17.95192 | 142 ft | 28 kts | 346° |
| 2026-04-26 17:52 | 59.65744 | 17.95097 | 140 ft | 15 kts | 299° |
| 2026-04-26 17:52 | 59.65732 | 17.94857 | 139 ft | 20 kts | 254° |
| 2026-04-26 17:52 | 59.65691 | 17.94549 | 136 ft | 26 kts | 256° |
| 2026-04-26 17:52 | 59.65642 | 17.94157 | 128 ft | 32 kts | 255° |
| 2026-04-26 17:53 | 59.65590 | 17.93740 | 123 ft | 30 kts | 255° |
| 2026-04-26 17:53 | 59.65543 | 17.93380 | 117 ft | 13 kts | 256° |
| 2026-04-26 17:53 | 59.65514 | 17.93223 | 115 ft | 9 kts | 229° |
| 2026-04-26 17:54 | 59.65390 | 17.93262 | 117 ft | 9 kts | 166° |
| 2026-04-26 17:54 | 59.65346 | 17.93245 | 116 ft | 7 kts | 245° |
| 2026-04-26 17:54 | 59.65335 | 17.93181 | 115 ft | 0 kts | 250° |